sensor_id;sensor_type;location;lat;lon;timestamp;P1;durP1;ratioP1;P2;durP2;ratioP2
73857;SDS011;62195;55.030;73.278;2022-07-23T00:01:25;8.88;;;4.25;;
73857;SDS011;62195;55.030;73.278;2022-07-23T00:03:52;8.32;;;3.08;;
73857;SDS011;62195;55.030;73.278;2022-07-23T00:06:25;6.78;;;3.00;;
73857;SDS011;62195;55.030;73.278;2022-07-23T00:08:51;6.45;;;3.42;;
73857;SDS011;62195;55.030;73.278;2022-07-23T00:11:18;5.70;;;3.17;;
73857;SDS011;62195;55.030;73.278;2022-07-23T00:13:45;6.88;;;3.50;;
73857;SDS011;62195;55.030;73.278;2022-07-23T00:16:11;6.97;;;3.20;;
73857;SDS011;62195;55.030;73.278;2022-07-23T00:18:37;6.63;;;3.15;;
73857;SDS011;62195;55.030;73.278;2022-07-23T00:21:12;8.88;;;3.72;;
73857;SDS011;62195;55.030;73.278;2022-07-23T00:23:38;8.32;;;3.67;;
73857;SDS011;62195;55.030;73.278;2022-07-23T00:26:05;5.85;;;3.40;;
73857;SDS011;62195;55.030;73.278;2022-07-23T00:28:33;6.10;;;3.50;;
73857;SDS011;62195;55.030;73.278;2022-07-23T00:31:00;6.07;;;3.70;;
73857;SDS011;62195;55.030;73.278;2022-07-23T00:33:26;7.05;;;3.85;;
73857;SDS011;62195;55.030;73.278;2022-07-23T00:35:53;8.70;;;3.30;;
73857;SDS011;62195;55.030;73.278;2022-07-23T00:38:19;5.32;;;3.33;;
73857;SDS011;62195;55.030;73.278;2022-07-23T00:40:45;10.93;;;3.53;;
73857;SDS011;62195;55.030;73.278;2022-07-23T00:43:11;8.65;;;4.00;;
73857;SDS011;62195;55.030;73.278;2022-07-23T00:45:37;10.70;;;4.78;;
73857;SDS011;62195;55.030;73.278;2022-07-23T00:48:04;11.32;;;3.97;;
73857;SDS011;62195;55.030;73.278;2022-07-23T00:50:31;9.80;;;3.70;;
73857;SDS011;62195;55.030;73.278;2022-07-23T00:52:57;8.00;;;4.00;;
73857;SDS011;62195;55.030;73.278;2022-07-23T00:55:23;6.00;;;3.72;;
73857;SDS011;62195;55.030;73.278;2022-07-23T00:57:50;9.80;;;4.10;;
73857;SDS011;62195;55.030;73.278;2022-07-23T01:00:18;7.03;;;3.70;;
73857;SDS011;62195;55.030;73.278;2022-07-23T01:02:50;9.03;;;4.03;;
73857;SDS011;62195;55.030;73.278;2022-07-23T01:05:17;6.55;;;3.67;;
73857;SDS011;62195;55.030;73.278;2022-07-23T01:07:48;6.95;;;4.40;;
73857;SDS011;62195;55.030;73.278;2022-07-23T01:10:17;7.57;;;4.15;;
73857;SDS011;62195;55.030;73.278;2022-07-23T01:12:59;9.85;;;4.30;;
73857;SDS011;62195;55.030;73.278;2022-07-23T01:15:34;7.93;;;4.38;;
73857;SDS011;62195;55.030;73.278;2022-07-23T01:18:11;8.60;;;4.43;;
73857;SDS011;62195;55.030;73.278;2022-07-23T01:20:38;6.65;;;4.15;;
73857;SDS011;62195;55.030;73.278;2022-07-23T01:23:06;6.07;;;3.63;;
73857;SDS011;62195;55.030;73.278;2022-07-23T01:25:33;6.28;;;3.90;;
73857;SDS011;62195;55.030;73.278;2022-07-23T01:28:02;7.85;;;4.35;;
73857;SDS011;62195;55.030;73.278;2022-07-23T01:30:28;5.38;;;4.15;;
73857;SDS011;62195;55.030;73.278;2022-07-23T01:32:56;6.25;;;3.78;;
73857;SDS011;62195;55.030;73.278;2022-07-23T01:35:23;6.53;;;4.20;;
73857;SDS011;62195;55.030;73.278;2022-07-23T01:37:57;8.25;;;4.88;;
73857;SDS011;62195;55.030;73.278;2022-07-23T01:40:23;9.38;;;6.80;;
73857;SDS011;62195;55.030;73.278;2022-07-23T01:42:50;13.45;;;10.00;;
73857;SDS011;62195;55.030;73.278;2022-07-23T01:45:17;10.23;;;7.90;;
73857;SDS011;62195;55.030;73.278;2022-07-23T01:47:49;9.02;;;5.72;;
73857;SDS011;62195;55.030;73.278;2022-07-23T01:50:18;7.50;;;4.25;;
73857;SDS011;62195;55.030;73.278;2022-07-23T01:53:05;5.68;;;4.38;;
73857;SDS011;62195;55.030;73.278;2022-07-23T01:55:31;9.13;;;4.15;;
73857;SDS011;62195;55.030;73.278;2022-07-23T01:57:57;7.72;;;4.07;;
73857;SDS011;62195;55.030;73.278;2022-07-23T02:00:28;8.02;;;4.10;;
73857;SDS011;62195;55.030;73.278;2022-07-23T02:02:54;8.70;;;4.00;;
73857;SDS011;62195;55.030;73.278;2022-07-23T02:05:21;6.03;;;4.60;;
73857;SDS011;62195;55.030;73.278;2022-07-23T02:07:47;9.85;;;4.88;;
73857;SDS011;62195;55.030;73.278;2022-07-23T02:10:14;7.93;;;4.47;;
73857;SDS011;62195;55.030;73.278;2022-07-23T02:12:40;7.10;;;4.75;;
73857;SDS011;62195;55.030;73.278;2022-07-23T02:15:09;8.20;;;5.10;;
73857;SDS011;62195;55.030;73.278;2022-07-23T02:17:35;8.85;;;5.22;;
73857;SDS011;62195;55.030;73.278;2022-07-23T02:20:01;8.30;;;4.72;;
73857;SDS011;62195;55.030;73.278;2022-07-23T02:22:28;11.20;;;4.70;;
73857;SDS011;62195;55.030;73.278;2022-07-23T02:24:54;12.25;;;4.65;;
73857;SDS011;62195;55.030;73.278;2022-07-23T02:27:20;7.15;;;4.40;;
73857;SDS011;62195;55.030;73.278;2022-07-23T02:29:46;7.50;;;3.70;;
73857;SDS011;62195;55.030;73.278;2022-07-23T02:32:24;4.53;;;3.50;;
73857;SDS011;62195;55.030;73.278;2022-07-23T02:34:55;7.25;;;3.78;;
73857;SDS011;62195;55.030;73.278;2022-07-23T02:37:21;11.18;;;4.05;;
73857;SDS011;62195;55.030;73.278;2022-07-23T02:39:48;14.30;;;4.38;;
73857;SDS011;62195;55.030;73.278;2022-07-23T02:42:15;9.70;;;4.68;;
73857;SDS011;62195;55.030;73.278;2022-07-23T02:44:42;9.00;;;3.60;;
73857;SDS011;62195;55.030;73.278;2022-07-23T02:47:08;8.40;;;3.75;;
73857;SDS011;62195;55.030;73.278;2022-07-23T02:49:34;9.38;;;3.85;;
73857;SDS011;62195;55.030;73.278;2022-07-23T02:52:03;8.00;;;3.97;;
73857;SDS011;62195;55.030;73.278;2022-07-23T02:54:29;15.90;;;4.50;;
73857;SDS011;62195;55.030;73.278;2022-07-23T02:56:55;9.02;;;4.30;;
73857;SDS011;62195;55.030;73.278;2022-07-23T02:59:22;10.00;;;4.35;;
73857;SDS011;62195;55.030;73.278;2022-07-23T03:01:58;10.52;;;4.53;;
73857;SDS011;62195;55.030;73.278;2022-07-23T03:04:27;9.02;;;4.25;;
73857;SDS011;62195;55.030;73.278;2022-07-23T03:06:55;10.05;;;4.60;;
73857;SDS011;62195;55.030;73.278;2022-07-23T03:09:21;10.35;;;4.30;;
73857;SDS011;62195;55.030;73.278;2022-07-23T03:11:47;12.25;;;4.78;;
73857;SDS011;62195;55.030;73.278;2022-07-23T03:14:13;6.60;;;4.60;;
73857;SDS011;62195;55.030;73.278;2022-07-23T03:16:39;10.05;;;4.60;;
73857;SDS011;62195;55.030;73.278;2022-07-23T03:19:06;6.25;;;4.13;;
73857;SDS011;62195;55.030;73.278;2022-07-23T03:21:32;7.72;;;4.40;;
73857;SDS011;62195;55.030;73.278;2022-07-23T03:24:00;7.63;;;4.47;;
73857;SDS011;62195;55.030;73.278;2022-07-23T03:26:26;10.52;;;5.15;;
73857;SDS011;62195;55.030;73.278;2022-07-23T03:29:01;7.25;;;4.30;;
73857;SDS011;62195;55.030;73.278;2022-07-23T03:31:30;17.63;;;4.50;;
73857;SDS011;62195;55.030;73.278;2022-07-23T03:33:57;11.57;;;4.68;;
73857;SDS011;62195;55.030;73.278;2022-07-23T03:36:24;17.13;;;5.18;;
73857;SDS011;62195;55.030;73.278;2022-07-23T03:38:53;11.95;;;5.05;;
73857;SDS011;62195;55.030;73.278;2022-07-23T03:41:28;9.35;;;4.75;;
73857;SDS011;62195;55.030;73.278;2022-07-23T03:43:54;11.77;;;4.53;;
73857;SDS011;62195;55.030;73.278;2022-07-23T03:46:20;9.50;;;4.70;;
73857;SDS011;62195;55.030;73.278;2022-07-23T03:48:46;10.90;;;4.38;;
73857;SDS011;62195;55.030;73.278;2022-07-23T03:51:13;10.43;;;4.30;;
73857;SDS011;62195;55.030;73.278;2022-07-23T03:53:47;15.23;;;4.30;;
73857;SDS011;62195;55.030;73.278;2022-07-23T03:56:15;9.20;;;4.15;;
73857;SDS011;62195;55.030;73.278;2022-07-23T03:58:43;11.48;;;4.20;;
73857;SDS011;62195;55.030;73.278;2022-07-23T04:01:09;16.88;;;4.72;;
73857;SDS011;62195;55.030;73.278;2022-07-23T04:03:36;11.73;;;4.90;;
73857;SDS011;62195;55.030;73.278;2022-07-23T04:06:02;10.63;;;4.10;;
73857;SDS011;62195;55.030;73.278;2022-07-23T04:08:30;7.32;;;4.40;;
73857;SDS011;62195;55.030;73.278;2022-07-23T04:11:00;7.97;;;3.97;;
73857;SDS011;62195;55.030;73.278;2022-07-23T04:13:26;9.05;;;3.63;;
73857;SDS011;62195;55.030;73.278;2022-07-23T04:15:53;6.68;;;3.42;;
73857;SDS011;62195;55.030;73.278;2022-07-23T04:18:19;5.97;;;3.40;;
73857;SDS011;62195;55.030;73.278;2022-07-23T04:20:56;11.40;;;3.90;;
73857;SDS011;62195;55.030;73.278;2022-07-23T04:23:23;14.38;;;3.50;;
73857;SDS011;62195;55.030;73.278;2022-07-23T04:25:55;12.30;;;3.50;;
73857;SDS011;62195;55.030;73.278;2022-07-23T04:28:22;11.13;;;3.60;;
73857;SDS011;62195;55.030;73.278;2022-07-23T04:30:49;8.85;;;3.40;;
73857;SDS011;62195;55.030;73.278;2022-07-23T04:33:16;11.85;;;3.83;;
73857;SDS011;62195;55.030;73.278;2022-07-23T04:35:45;21.05;;;4.00;;
73857;SDS011;62195;55.030;73.278;2022-07-23T04:38:17;19.03;;;4.43;;
73857;SDS011;62195;55.030;73.278;2022-07-23T04:40:56;11.18;;;3.85;;
73857;SDS011;62195;55.030;73.278;2022-07-23T04:43:22;9.43;;;3.20;;
73857;SDS011;62195;55.030;73.278;2022-07-23T04:48:21;11.68;;;3.55;;
73857;SDS011;62195;55.030;73.278;2022-07-23T04:53:25;7.32;;;3.30;;
73857;SDS011;62195;55.030;73.278;2022-07-23T04:55:55;25.17;;;5.05;;
73857;SDS011;62195;55.030;73.278;2022-07-23T04:58:22;10.63;;;4.28;;
73857;SDS011;62195;55.030;73.278;2022-07-23T05:00:48;16.17;;;5.10;;
73857;SDS011;62195;55.030;73.278;2022-07-23T05:03:14;7.35;;;3.63;;
73857;SDS011;62195;55.030;73.278;2022-07-23T05:05:45;8.52;;;3.50;;
73857;SDS011;62195;55.030;73.278;2022-07-23T05:08:15;9.05;;;3.70;;
73857;SDS011;62195;55.030;73.278;2022-07-23T05:10:43;7.90;;;3.28;;
73857;SDS011;62195;55.030;73.278;2022-07-23T05:13:09;14.77;;;4.07;;
73857;SDS011;62195;55.030;73.278;2022-07-23T05:15:35;7.85;;;3.13;;
73857;SDS011;62195;55.030;73.278;2022-07-23T05:18:02;10.55;;;3.50;;
73857;SDS011;62195;55.030;73.278;2022-07-23T05:20:29;25.10;;;4.78;;
73857;SDS011;62195;55.030;73.278;2022-07-23T05:22:56;5.13;;;3.38;;
73857;SDS011;62195;55.030;73.278;2022-07-23T05:25:31;7.85;;;3.42;;
73857;SDS011;62195;55.030;73.278;2022-07-23T05:27:57;5.40;;;3.33;;
73857;SDS011;62195;55.030;73.278;2022-07-23T05:30:29;5.13;;;3.15;;
73857;SDS011;62195;55.030;73.278;2022-07-23T05:32:59;12.23;;;3.55;;
73857;SDS011;62195;55.030;73.278;2022-07-23T05:35:25;7.03;;;3.80;;
73857;SDS011;62195;55.030;73.278;2022-07-23T05:38:18;8.80;;;3.70;;
73857;SDS011;62195;55.030;73.278;2022-07-23T05:40:45;8.32;;;3.20;;
73857;SDS011;62195;55.030;73.278;2022-07-23T05:43:22;9.68;;;3.33;;
73857;SDS011;62195;55.030;73.278;2022-07-23T05:45:58;29.58;;;5.10;;
73857;SDS011;62195;55.030;73.278;2022-07-23T05:48:24;17.35;;;4.10;;
73857;SDS011;62195;55.030;73.278;2022-07-23T05:51:00;12.52;;;3.40;;
73857;SDS011;62195;55.030;73.278;2022-07-23T05:53:30;17.13;;;4.28;;
73857;SDS011;62195;55.030;73.278;2022-07-23T05:56:01;12.75;;;3.30;;
73857;SDS011;62195;55.030;73.278;2022-07-23T05:58:31;14.05;;;3.63;;
73857;SDS011;62195;55.030;73.278;2022-07-23T06:00:57;6.45;;;3.17;;
73857;SDS011;62195;55.030;73.278;2022-07-23T06:03:23;6.45;;;3.17;;
73857;SDS011;62195;55.030;73.278;2022-07-23T06:05:50;28.52;;;3.85;;
73857;SDS011;62195;55.030;73.278;2022-07-23T06:08:17;4.75;;;3.05;;
73857;SDS011;62195;55.030;73.278;2022-07-23T06:10:43;4.00;;;3.17;;
73857;SDS011;62195;55.030;73.278;2022-07-23T06:13:09;5.00;;;3.38;;
73857;SDS011;62195;55.030;73.278;2022-07-23T06:15:36;8.30;;;3.50;;
73857;SDS011;62195;55.030;73.278;2022-07-23T06:18:02;8.82;;;4.28;;
73857;SDS011;62195;55.030;73.278;2022-07-23T06:20:29;7.93;;;4.07;;
73857;SDS011;62195;55.030;73.278;2022-07-23T06:22:57;5.63;;;3.30;;
73857;SDS011;62195;55.030;73.278;2022-07-23T06:25:23;5.72;;;3.80;;
73857;SDS011;62195;55.030;73.278;2022-07-23T06:27:49;6.07;;;3.17;;
73857;SDS011;62195;55.030;73.278;2022-07-23T06:30:15;6.68;;;3.50;;
73857;SDS011;62195;55.030;73.278;2022-07-23T06:32:43;10.88;;;6.93;;
73857;SDS011;62195;55.030;73.278;2022-07-23T06:35:20;10.15;;;4.50;;
73857;SDS011;62195;55.030;73.278;2022-07-23T06:37:46;5.72;;;3.50;;
73857;SDS011;62195;55.030;73.278;2022-07-23T06:40:12;8.80;;;3.60;;
73857;SDS011;62195;55.030;73.278;2022-07-23T06:42:39;8.77;;;3.42;;
73857;SDS011;62195;55.030;73.278;2022-07-23T06:45:06;17.23;;;3.90;;
73857;SDS011;62195;55.030;73.278;2022-07-23T06:47:35;13.48;;;4.15;;
73857;SDS011;62195;55.030;73.278;2022-07-23T06:50:01;9.32;;;3.80;;
73857;SDS011;62195;55.030;73.278;2022-07-23T06:52:28;9.30;;;3.47;;
73857;SDS011;62195;55.030;73.278;2022-07-23T06:54:54;5.50;;;3.03;;
73857;SDS011;62195;55.030;73.278;2022-07-23T06:57:20;12.85;;;3.38;;
73857;SDS011;62195;55.030;73.278;2022-07-23T06:59:46;4.15;;;2.85;;
73857;SDS011;62195;55.030;73.278;2022-07-23T07:02:13;5.47;;;3.38;;
73857;SDS011;62195;55.030;73.278;2022-07-23T07:04:39;4.82;;;3.10;;
73857;SDS011;62195;55.030;73.278;2022-07-23T07:07:05;6.65;;;3.30;;
73857;SDS011;62195;55.030;73.278;2022-07-23T07:09:31;5.85;;;3.20;;
73857;SDS011;62195;55.030;73.278;2022-07-23T07:11:57;11.68;;;4.15;;
73857;SDS011;62195;55.030;73.278;2022-07-23T07:14:23;8.70;;;3.40;;
73857;SDS011;62195;55.030;73.278;2022-07-23T07:16:50;4.57;;;3.38;;
73857;SDS011;62195;55.030;73.278;2022-07-23T07:19:16;10.05;;;3.83;;
73857;SDS011;62195;55.030;73.278;2022-07-23T07:21:42;6.18;;;4.18;;
73857;SDS011;62195;55.030;73.278;2022-07-23T07:24:08;7.72;;;3.58;;
73857;SDS011;62195;55.030;73.278;2022-07-23T07:26:34;7.32;;;3.10;;
73857;SDS011;62195;55.030;73.278;2022-07-23T07:29:08;8.45;;;3.78;;
73857;SDS011;62195;55.030;73.278;2022-07-23T07:31:34;7.97;;;3.25;;
73857;SDS011;62195;55.030;73.278;2022-07-23T07:34:00;3.65;;;3.25;;
73857;SDS011;62195;55.030;73.278;2022-07-23T07:36:26;5.40;;;3.47;;
73857;SDS011;62195;55.030;73.278;2022-07-23T07:38:57;7.13;;;3.83;;
73857;SDS011;62195;55.030;73.278;2022-07-23T07:41:24;6.28;;;3.38;;
73857;SDS011;62195;55.030;73.278;2022-07-23T07:43:51;6.93;;;3.50;;
73857;SDS011;62195;55.030;73.278;2022-07-23T07:46:17;7.05;;;3.45;;
73857;SDS011;62195;55.030;73.278;2022-07-23T07:48:43;6.05;;;3.50;;
73857;SDS011;62195;55.030;73.278;2022-07-23T07:51:14;6.25;;;3.78;;
73857;SDS011;62195;55.030;73.278;2022-07-23T07:53:49;7.18;;;3.55;;
73857;SDS011;62195;55.030;73.278;2022-07-23T07:56:20;8.88;;;3.70;;
73857;SDS011;62195;55.030;73.278;2022-07-23T07:58:51;8.55;;;4.15;;
73857;SDS011;62195;55.030;73.278;2022-07-23T08:01:18;10.88;;;4.47;;
73857;SDS011;62195;55.030;73.278;2022-07-23T08:03:45;14.02;;;4.20;;
73857;SDS011;62195;55.030;73.278;2022-07-23T08:06:16;14.07;;;5.00;;
73857;SDS011;62195;55.030;73.278;2022-07-23T08:08:43;16.13;;;5.70;;
73857;SDS011;62195;55.030;73.278;2022-07-23T08:11:09;17.35;;;5.47;;
73857;SDS011;62195;55.030;73.278;2022-07-23T08:13:35;15.55;;;5.55;;
73857;SDS011;62195;55.030;73.278;2022-07-23T08:16:05;17.10;;;6.10;;
73857;SDS011;62195;55.030;73.278;2022-07-23T08:18:32;6.53;;;3.80;;
73857;SDS011;62195;55.030;73.278;2022-07-23T08:20:58;9.13;;;4.03;;
73857;SDS011;62195;55.030;73.278;2022-07-23T08:23:24;21.80;;;5.43;;
73857;SDS011;62195;55.030;73.278;2022-07-23T08:25:50;10.82;;;4.78;;
73857;SDS011;62195;55.030;73.278;2022-07-23T08:28:16;7.85;;;3.72;;
73857;SDS011;62195;55.030;73.278;2022-07-23T08:30:43;8.50;;;4.13;;
73857;SDS011;62195;55.030;73.278;2022-07-23T08:33:13;7.40;;;3.83;;
73857;SDS011;62195;55.030;73.278;2022-07-23T08:35:41;7.20;;;4.10;;
73857;SDS011;62195;55.030;73.278;2022-07-23T08:38:24;9.80;;;4.10;;
73857;SDS011;62195;55.030;73.278;2022-07-23T08:40:52;8.63;;;3.83;;
73857;SDS011;62195;55.030;73.278;2022-07-23T08:43:20;7.47;;;4.22;;
73857;SDS011;62195;55.030;73.278;2022-07-23T08:45:49;13.05;;;4.65;;
73857;SDS011;62195;55.030;73.278;2022-07-23T08:48:18;12.23;;;4.10;;
73857;SDS011;62195;55.030;73.278;2022-07-23T08:50:47;11.30;;;4.07;;
73857;SDS011;62195;55.030;73.278;2022-07-23T08:53:15;11.70;;;3.92;;
73857;SDS011;62195;55.030;73.278;2022-07-23T08:55:49;7.65;;;3.60;;
73857;SDS011;62195;55.030;73.278;2022-07-23T08:58:22;12.30;;;5.78;;
73857;SDS011;62195;55.030;73.278;2022-07-23T09:00:51;9.15;;;3.47;;
73857;SDS011;62195;55.030;73.278;2022-07-23T09:03:18;6.63;;;3.65;;
73857;SDS011;62195;55.030;73.278;2022-07-23T09:06:04;7.40;;;3.47;;
73857;SDS011;62195;55.030;73.278;2022-07-23T09:08:38;4.63;;;2.97;;
73857;SDS011;62195;55.030;73.278;2022-07-23T09:11:05;4.43;;;3.10;;
73857;SDS011;62195;55.030;73.278;2022-07-23T09:13:50;5.43;;;3.40;;
73857;SDS011;62195;55.030;73.278;2022-07-23T09:16:25;7.90;;;3.38;;
73857;SDS011;62195;55.030;73.278;2022-07-23T09:18:58;5.72;;;3.13;;
73857;SDS011;62195;55.030;73.278;2022-07-23T09:21:30;7.25;;;3.72;;
73857;SDS011;62195;55.030;73.278;2022-07-23T09:26:35;8.27;;;3.50;;
73857;SDS011;62195;55.030;73.278;2022-07-23T09:29:13;9.52;;;4.07;;
73857;SDS011;62195;55.030;73.278;2022-07-23T09:34:24;8.10;;;3.45;;
73857;SDS011;62195;55.030;73.278;2022-07-23T09:36:56;8.05;;;3.67;;
73857;SDS011;62195;55.030;73.278;2022-07-23T09:39:31;10.43;;;3.92;;
73857;SDS011;62195;55.030;73.278;2022-07-23T09:42:18;15.13;;;4.75;;
73857;SDS011;62195;55.030;73.278;2022-07-23T09:44:50;18.50;;;5.45;;
73857;SDS011;62195;55.030;73.278;2022-07-23T09:47:22;14.13;;;4.95;;
73857;SDS011;62195;55.030;73.278;2022-07-23T09:52:35;30.10;;;5.95;;
73857;SDS011;62195;55.030;73.278;2022-07-23T09:55:08;15.50;;;3.80;;
73857;SDS011;62195;55.030;73.278;2022-07-23T09:57:34;4.35;;;2.88;;
73857;SDS011;62195;55.030;73.278;2022-07-23T10:00:02;4.85;;;2.92;;
73857;SDS011;62195;55.030;73.278;2022-07-23T10:02:34;6.57;;;2.97;;
73857;SDS011;62195;55.030;73.278;2022-07-23T10:05:27;5.00;;;3.05;;
73857;SDS011;62195;55.030;73.278;2022-07-23T10:07:59;5.70;;;3.53;;
73857;SDS011;62195;55.030;73.278;2022-07-23T10:10:47;6.18;;;3.55;;
73857;SDS011;62195;55.030;73.278;2022-07-23T10:13:16;6.70;;;3.38;;
73857;SDS011;62195;55.030;73.278;2022-07-23T10:16:04;9.30;;;3.40;;
73857;SDS011;62195;55.030;73.278;2022-07-23T10:18:30;7.07;;;4.00;;
73857;SDS011;62195;55.030;73.278;2022-07-23T10:20:56;18.15;;;4.57;;
73857;SDS011;62195;55.030;73.278;2022-07-23T10:23:27;10.73;;;3.83;;
73857;SDS011;62195;55.030;73.278;2022-07-23T10:34:36;11.25;;;3.20;;
73857;SDS011;62195;55.030;73.278;2022-07-23T10:42:37;7.10;;;3.35;;
73857;SDS011;62195;55.030;73.278;2022-07-23T10:48:11;5.78;;;3.30;;
73857;SDS011;62195;55.030;73.278;2022-07-23T10:55:45;8.10;;;3.10;;
73857;SDS011;62195;55.030;73.278;2022-07-23T10:58:20;4.93;;;2.58;;
73857;SDS011;62195;55.030;73.278;2022-07-23T11:00:48;3.83;;;2.88;;
73857;SDS011;62195;55.030;73.278;2022-07-23T11:03:27;22.20;;;5.45;;
73857;SDS011;62195;55.030;73.278;2022-07-23T11:05:56;45.15;;;7.68;;
73857;SDS011;62195;55.030;73.278;2022-07-23T11:08:22;31.75;;;4.68;;
73857;SDS011;62195;55.030;73.278;2022-07-23T11:10:52;65.65;;;7.85;;
73857;SDS011;62195;55.030;73.278;2022-07-23T11:31:58;3.22;;;2.03;;
73857;SDS011;62195;55.030;73.278;2022-07-23T11:34:35;5.13;;;2.20;;
73857;SDS011;62195;55.030;73.278;2022-07-23T11:37:33;2.80;;;1.58;;
73857;SDS011;62195;55.030;73.278;2022-07-23T11:40:00;3.45;;;1.77;;
73857;SDS011;62195;55.030;73.278;2022-07-23T11:42:29;9.23;;;2.53;;
73857;SDS011;62195;55.030;73.278;2022-07-23T11:44:55;11.38;;;2.60;;
73857;SDS011;62195;55.030;73.278;2022-07-23T11:47:23;15.38;;;2.45;;
73857;SDS011;62195;55.030;73.278;2022-07-23T11:50:00;8.30;;;1.90;;
73857;SDS011;62195;55.030;73.278;2022-07-23T11:52:29;9.98;;;1.80;;
73857;SDS011;62195;55.030;73.278;2022-07-23T11:54:56;6.28;;;1.58;;
73857;SDS011;62195;55.030;73.278;2022-07-23T11:57:34;2.28;;;1.75;;
73857;SDS011;62195;55.030;73.278;2022-07-23T12:02:51;5.75;;;2.28;;
73857;SDS011;62195;55.030;73.278;2022-07-23T12:05:20;6.93;;;2.60;;
73857;SDS011;62195;55.030;73.278;2022-07-23T12:07:48;14.27;;;3.47;;
73857;SDS011;62195;55.030;73.278;2022-07-23T12:12:50;22.50;;;4.03;;
73857;SDS011;62195;55.030;73.278;2022-07-23T12:15:17;9.40;;;3.05;;
73857;SDS011;62195;55.030;73.278;2022-07-23T12:17:47;6.22;;;2.53;;
73857;SDS011;62195;55.030;73.278;2022-07-23T12:20:16;6.03;;;3.15;;
73857;SDS011;62195;55.030;73.278;2022-07-23T12:22:44;7.22;;;3.00;;
73857;SDS011;62195;55.030;73.278;2022-07-23T12:25:13;45.25;;;7.55;;
73857;SDS011;62195;55.030;73.278;2022-07-23T12:27:44;58.22;;;9.70;;
73857;SDS011;62195;55.030;73.278;2022-07-23T12:32:53;54.67;;;10.32;;
73857;SDS011;62195;55.030;73.278;2022-07-23T12:35:21;44.60;;;8.82;;
73857;SDS011;62195;55.030;73.278;2022-07-23T12:38:03;74.68;;;10.60;;
73857;SDS011;62195;55.030;73.278;2022-07-23T12:40:32;38.30;;;6.88;;
73857;SDS011;62195;55.030;73.278;2022-07-23T12:43:02;19.75;;;4.57;;
73857;SDS011;62195;55.030;73.278;2022-07-23T12:48:25;35.88;;;7.18;;
73857;SDS011;62195;55.030;73.278;2022-07-23T12:50:55;14.13;;;4.85;;
73857;SDS011;62195;55.030;73.278;2022-07-23T12:53:27;7.35;;;3.40;;
73857;SDS011;62195;55.030;73.278;2022-07-23T12:56:15;5.93;;;3.03;;
73857;SDS011;62195;55.030;73.278;2022-07-23T13:04:03;25.88;;;5.28;;
73857;SDS011;62195;55.030;73.278;2022-07-23T13:06:35;20.25;;;4.75;;
73857;SDS011;62195;55.030;73.278;2022-07-23T13:11:34;13.48;;;4.30;;
73857;SDS011;62195;55.030;73.278;2022-07-23T13:14:00;13.43;;;3.80;;
73857;SDS011;62195;55.030;73.278;2022-07-23T13:16:28;8.13;;;3.42;;
73857;SDS011;62195;55.030;73.278;2022-07-23T13:18:56;7.20;;;2.90;;
73857;SDS011;62195;55.030;73.278;2022-07-23T13:21:23;9.38;;;2.90;;
73857;SDS011;62195;55.030;73.278;2022-07-23T13:23:50;7.45;;;3.17;;
73857;SDS011;62195;55.030;73.278;2022-07-23T13:26:16;15.40;;;3.97;;
73857;SDS011;62195;55.030;73.278;2022-07-23T13:28:43;20.50;;;4.75;;
73857;SDS011;62195;55.030;73.278;2022-07-23T13:31:09;103.00;;;13.90;;
73857;SDS011;62195;55.030;73.278;2022-07-23T13:33:36;59.60;;;9.60;;
73857;SDS011;62195;55.030;73.278;2022-07-23T13:36:02;34.50;;;5.72;;
73857;SDS011;62195;55.030;73.278;2022-07-23T13:38:29;14.95;;;3.67;;
73857;SDS011;62195;55.030;73.278;2022-07-23T13:40:55;13.65;;;3.10;;
73857;SDS011;62195;55.030;73.278;2022-07-23T13:43:22;5.57;;;2.83;;
73857;SDS011;62195;55.030;73.278;2022-07-23T13:45:51;7.95;;;2.78;;
73857;SDS011;62195;55.030;73.278;2022-07-23T13:48:19;8.27;;;3.30;;
73857;SDS011;62195;55.030;73.278;2022-07-23T13:50:46;6.50;;;2.55;;
73857;SDS011;62195;55.030;73.278;2022-07-23T13:53:13;7.88;;;3.00;;
73857;SDS011;62195;55.030;73.278;2022-07-23T13:55:44;8.05;;;2.60;;
73857;SDS011;62195;55.030;73.278;2022-07-23T13:58:14;5.13;;;2.45;;
73857;SDS011;62195;55.030;73.278;2022-07-23T14:00:42;6.57;;;2.30;;
73857;SDS011;62195;55.030;73.278;2022-07-23T14:03:11;4.93;;;2.58;;
73857;SDS011;62195;55.030;73.278;2022-07-23T14:05:37;5.60;;;2.50;;
73857;SDS011;62195;55.030;73.278;2022-07-23T14:08:03;7.60;;;2.92;;
73857;SDS011;62195;55.030;73.278;2022-07-23T14:10:30;5.00;;;2.55;;
73857;SDS011;62195;55.030;73.278;2022-07-23T14:12:57;5.93;;;2.40;;
73857;SDS011;62195;55.030;73.278;2022-07-23T14:15:25;4.68;;;2.45;;
73857;SDS011;62195;55.030;73.278;2022-07-23T14:17:54;4.55;;;2.33;;
73857;SDS011;62195;55.030;73.278;2022-07-23T14:20:21;5.00;;;2.50;;
73857;SDS011;62195;55.030;73.278;2022-07-23T14:22:47;3.50;;;2.72;;
73857;SDS011;62195;55.030;73.278;2022-07-23T14:25:15;4.93;;;2.58;;
73857;SDS011;62195;55.030;73.278;2022-07-23T14:27:42;10.00;;;2.47;;
73857;SDS011;62195;55.030;73.278;2022-07-23T14:30:10;4.50;;;2.90;;
73857;SDS011;62195;55.030;73.278;2022-07-23T14:32:39;4.72;;;1.92;;
73857;SDS011;62195;55.030;73.278;2022-07-23T14:35:05;3.97;;;2.58;;
73857;SDS011;62195;55.030;73.278;2022-07-23T14:37:32;2.58;;;2.00;;
73857;SDS011;62195;55.030;73.278;2022-07-23T14:39:59;7.20;;;1.95;;
73857;SDS011;62195;55.030;73.278;2022-07-23T14:42:25;3.67;;;2.15;;
73857;SDS011;62195;55.030;73.278;2022-07-23T14:44:52;3.85;;;2.50;;
73857;SDS011;62195;55.030;73.278;2022-07-23T14:47:18;4.63;;;2.58;;
73857;SDS011;62195;55.030;73.278;2022-07-23T14:49:44;5.35;;;2.90;;
73857;SDS011;62195;55.030;73.278;2022-07-23T14:52:10;6.57;;;3.00;;
73857;SDS011;62195;55.030;73.278;2022-07-23T14:54:36;5.68;;;2.88;;
73857;SDS011;62195;55.030;73.278;2022-07-23T14:57:03;6.20;;;3.33;;
73857;SDS011;62195;55.030;73.278;2022-07-23T14:59:39;3.90;;;2.55;;
73857;SDS011;62195;55.030;73.278;2022-07-23T15:02:07;6.07;;;2.80;;
73857;SDS011;62195;55.030;73.278;2022-07-23T15:04:34;9.20;;;3.50;;
73857;SDS011;62195;55.030;73.278;2022-07-23T15:07:00;6.35;;;3.40;;
73857;SDS011;62195;55.030;73.278;2022-07-23T15:09:26;5.93;;;3.45;;
73857;SDS011;62195;55.030;73.278;2022-07-23T15:12:02;8.13;;;3.75;;
73857;SDS011;62195;55.030;73.278;2022-07-23T15:14:29;8.50;;;4.07;;
73857;SDS011;62195;55.030;73.278;2022-07-23T15:16:56;7.28;;;3.97;;
73857;SDS011;62195;55.030;73.278;2022-07-23T15:19:22;8.52;;;4.50;;
73857;SDS011;62195;55.030;73.278;2022-07-23T15:21:49;13.15;;;4.57;;
73857;SDS011;62195;55.030;73.278;2022-07-23T15:28:14;10.18;;;5.07;;
73857;SDS011;62195;55.030;73.278;2022-07-23T15:30:46;9.45;;;4.47;;
73857;SDS011;62195;55.030;73.278;2022-07-23T15:33:14;10.85;;;5.63;;
73857;SDS011;62195;55.030;73.278;2022-07-23T15:35:40;12.15;;;6.70;;
73857;SDS011;62195;55.030;73.278;2022-07-23T15:38:16;12.80;;;6.97;;
73857;SDS011;62195;55.030;73.278;2022-07-23T15:40:53;12.88;;;7.15;;
73857;SDS011;62195;55.030;73.278;2022-07-23T15:43:30;12.77;;;7.38;;
73857;SDS011;62195;55.030;73.278;2022-07-23T15:45:57;12.68;;;6.97;;
73857;SDS011;62195;55.030;73.278;2022-07-23T15:48:23;13.40;;;6.95;;
73857;SDS011;62195;55.030;73.278;2022-07-23T15:50:49;19.13;;;9.32;;
73857;SDS011;62195;55.030;73.278;2022-07-23T15:53:21;15.52;;;7.70;;
73857;SDS011;62195;55.030;73.278;2022-07-23T15:55:47;12.80;;;6.93;;
73857;SDS011;62195;55.030;73.278;2022-07-23T15:58:22;12.35;;;7.25;;